Mansfield, Ohio
Current Conditions -  °F | °C
As of 3:52 PM on Saturday 25 Oct 2014 (Local Time) from KMFD Reporting Station
Clear Clear  
Wind Chill: 71°   Ceiling: Unl
Heat Index: 71°   Visibility: 10mi
Dew Point: 50°   Wind: 20mph
Humidity: 47%   Direction: 260°W
Pressure: 29.8"   Gusts: 28mph
Location:  40.76°N, 82.51°W
Report Text: KMFD 251952Z 26017G24KT 10SM CLR 22/10 A2980 RMK AO2 SLP090 T02170100
Loading
Personal Weather Stations






























Interactive Weather Map New forecast layout! Learn more

10-Day Weather Forecast

Advertisements
Track Severe Weather on mobile